createdAt,value
2018-10-09T00:02:45.476Z,72.50
2018-10-09T00:05:13.363Z,72.90
2018-10-09T00:17:31.372Z,72.80
2018-10-09T00:19:58.938Z,72.70
2018-10-09T00:22:26.552Z,72.60
2018-10-09T00:24:54.083Z,72.10
2018-10-09T00:27:21.595Z,72.20
2018-10-09T00:29:49.111Z,72.40
2018-10-09T00:32:16.584Z,74.80
2018-10-09T00:34:44.139Z,72.50
2018-10-09T00:37:11.706Z,74.80
2018-10-09T00:39:39.274Z,75.20
2018-10-09T00:42:07.004Z,75.80
2018-10-09T00:44:34.524Z,76.30
2018-10-09T00:47:02.248Z,73.20
2018-10-09T00:49:29.774Z,74.00
2018-10-09T00:51:57.434Z,79.60
2018-10-09T00:56:52.455Z,76.50
2018-10-09T00:59:20.020Z,74.30
2018-10-09T01:01:48.393Z,74.10
2018-10-09T01:04:16.228Z,74.40
2018-10-09T01:09:11.256Z,74.60
2018-10-09T01:14:06.248Z,74.60
2018-10-09T01:19:01.112Z,73.40
2018-10-09T01:21:28.626Z,72.60
2018-10-09T01:26:23.632Z,74.10
2018-10-09T01:31:18.582Z,72.70
2018-10-09T01:33:46.079Z,73.10
2018-10-09T01:36:13.579Z,73.60
2018-10-09T01:38:41.244Z,73.70
2018-10-09T01:41:08.787Z,74.10
2018-10-09T01:43:36.354Z,73.00
2018-10-09T01:46:03.909Z,73.50
2018-10-09T01:49:55.898Z,73.10
2018-10-09T01:52:23.433Z,73.30
2018-10-09T01:54:51.016Z,73.10
2018-10-09T01:57:18.543Z,73.50
2018-10-09T01:59:46.038Z,73.30
2018-10-09T02:02:13.500Z,74.00
2018-10-09T02:04:41.053Z,74.10
2018-10-09T02:07:08.672Z,74.00
2018-10-09T02:16:58.552Z,73.10
2018-10-09T02:19:26.561Z,74.30
2018-10-09T02:21:55.099Z,74.30
2018-10-09T02:24:23.186Z,74.60
2018-10-09T02:31:46.157Z,75.00
2018-10-09T02:34:13.941Z,74.70
2018-10-09T02:36:41.453Z,74.40
2018-10-09T02:39:10.456Z,74.80
2018-10-09T02:41:37.992Z,75.20
2018-10-09T02:44:06.240Z,75.10
2018-10-09T02:46:34.663Z,74.40
2018-10-09T02:49:02.455Z,74.20
2018-10-09T02:51:29.888Z,74.10
2018-10-09T02:53:57.944Z,74.30
2018-10-09T02:56:26.410Z,74.20
2018-10-09T02:58:53.988Z,74.30
2018-10-09T03:01:21.527Z,74.50
2018-10-09T03:06:16.472Z,73.80
2018-10-09T03:08:44.012Z,74.40
2018-10-09T03:11:11.540Z,74.40
2018-10-09T03:13:40.999Z,74.00
2018-10-09T03:16:08.650Z,73.70
2018-10-09T03:18:36.137Z,73.90
2018-10-09T03:21:03.684Z,74.00
2018-10-09T03:23:31.216Z,74.10
2018-10-09T03:25:59.269Z,74.90
2018-10-09T03:28:26.986Z,75.00
2018-10-09T03:33:22.463Z,75.10
2018-10-09T03:35:50.128Z,75.00
2018-10-09T03:38:17.712Z,75.30
2018-10-09T03:40:45.184Z,75.00
2018-10-09T03:43:13.052Z,76.10
2018-10-09T03:45:40.602Z,74.30
2018-10-09T03:48:08.167Z,74.20
2018-10-09T03:50:35.683Z,73.90
2018-10-09T03:55:30.655Z,74.80
2018-10-09T04:00:25.764Z,74.40
2018-10-09T04:02:53.274Z,74.10
2018-10-09T04:05:20.832Z,75.00
2018-10-09T04:07:48.403Z,75.20
2018-10-09T04:12:43.370Z,75.10
2018-10-09T04:15:10.895Z,76.00
2018-10-09T04:17:38.407Z,76.00
2018-10-09T04:21:30.574Z,75.30
2018-10-09T04:23:58.044Z,75.30
2018-10-09T04:28:53.287Z,76.00
2018-10-09T04:33:48.228Z,75.30
2018-10-09T04:36:15.728Z,75.70
2018-10-09T04:38:43.433Z,75.90
2018-10-09T04:41:10.960Z,75.90
2018-10-09T04:43:41.271Z,75.80
2018-10-09T04:46:08.809Z,76.60
2018-10-09T04:48:36.318Z,76.90
2018-10-09T04:51:07.973Z,77.00
2018-10-09T04:53:58.852Z,76.90
2018-10-09T04:56:27.632Z,76.00
2018-10-09T04:58:55.130Z,75.90
2018-10-09T05:01:22.771Z,76.00
2018-10-09T05:03:50.309Z,75.80
2018-10-09T05:06:17.852Z,75.90
2018-10-09T05:08:45.552Z,76.10
2018-10-09T05:11:13.034Z,75.80
2018-10-09T05:13:40.572Z,75.80
2018-10-09T05:18:35.449Z,75.80
2018-10-09T05:21:03.004Z,75.90
2018-10-09T05:23:30.606Z,75.70
2018-10-09T05:25:58.142Z,75.80
2018-10-09T05:28:25.595Z,75.80
2018-10-09T05:33:20.506Z,75.80
2018-10-09T05:35:48.029Z,76.10
2018-10-09T05:38:15.557Z,76.40
2018-10-09T05:40:43.098Z,75.80
2018-10-09T05:43:10.602Z,75.70
2018-10-09T05:45:38.676Z,75.90
2018-10-09T05:48:06.695Z,75.10
2018-10-09T05:53:01.645Z,75.10
2018-10-09T05:55:29.985Z,75.30
2018-10-09T06:02:52.561Z,74.50
2018-10-09T06:05:20.115Z,74.30
2018-10-09T06:10:15.268Z,73.50
2018-10-09T06:12:42.851Z,73.60
2018-10-09T06:15:10.347Z,73.50
2018-10-09T06:17:37.836Z,74.10
2018-10-09T06:20:05.901Z,74.60
2018-10-09T06:22:33.453Z,75.20
2018-10-09T06:25:00.925Z,75.30
2018-10-09T06:27:29.025Z,74.90
2018-10-09T06:29:56.616Z,75.00
2018-10-09T06:32:24.131Z,75.00
2018-10-09T06:37:21.067Z,75.00
2018-10-09T06:39:48.655Z,74.80
2018-10-09T06:42:16.113Z,75.60
2018-10-09T06:44:43.681Z,74.60
2018-10-09T06:47:11.163Z,74.30
2018-10-09T06:49:38.744Z,73.50
2018-10-09T06:52:06.320Z,73.40
2018-10-09T06:54:33.982Z,73.40
2018-10-09T06:57:01.982Z,73.40
2018-10-09T06:59:29.487Z,73.80
2018-10-09T07:01:57.031Z,73.30
2018-10-09T07:06:52.282Z,73.00
2018-10-09T07:09:19.889Z,74.60
2018-10-09T07:11:47.543Z,74.70
2018-10-09T07:14:15.181Z,76.30
2018-10-09T07:16:42.662Z,75.40
2018-10-09T07:19:10.188Z,75.40
2018-10-09T07:21:37.779Z,74.80
2018-10-09T07:25:29.797Z,74.90
2018-10-09T07:27:58.031Z,75.40
2018-10-09T07:30:25.526Z,75.10
2018-10-09T07:32:53.060Z,75.50
2018-10-09T07:35:20.586Z,74.40
2018-10-09T07:37:48.289Z,73.50
2018-10-09T07:40:15.796Z,72.90
2018-10-09T07:42:43.349Z,72.80
2018-10-09T07:45:10.913Z,72.80
2018-10-09T07:47:38.517Z,73.10
2018-10-09T07:50:06.468Z,72.60
2018-10-09T07:52:34.090Z,72.50
2018-10-09T07:55:01.653Z,72.10
2018-10-09T07:57:29.264Z,72.10
2018-10-09T07:59:56.833Z,71.70
2018-10-09T08:02:24.460Z,71.50
2018-10-09T08:04:52.253Z,72.20
2018-10-09T08:07:19.719Z,70.60
2018-10-09T08:09:47.232Z,70.90
2018-10-09T08:12:14.841Z,71.10
2018-10-09T08:14:42.343Z,70.80
2018-10-09T08:17:09.935Z,71.40
2018-10-09T08:19:37.460Z,70.30
2018-10-09T08:22:05.391Z,70.60
2018-10-09T08:24:32.909Z,70.10
2018-10-09T08:27:00.430Z,71.00
2018-10-09T08:29:28.004Z,70.60
2018-10-09T08:31:55.552Z,70.70
2018-10-09T08:34:23.142Z,70.70
2018-10-09T08:36:50.872Z,70.70
2018-10-09T08:39:18.402Z,70.70
2018-10-09T08:41:45.957Z,70.10
2018-10-09T08:44:13.666Z,69.80
2018-10-09T08:46:41.183Z,68.80
2018-10-09T08:49:08.801Z,67.50
2018-10-09T08:51:36.324Z,67.80
2018-10-09T08:54:03.869Z,68.20
2018-10-09T08:56:31.830Z,68.30
2018-10-09T08:58:59.470Z,68.30
2018-10-09T09:01:26.981Z,68.40
2018-10-09T09:03:54.480Z,67.80
2018-10-09T09:06:22.076Z,67.10
2018-10-09T09:08:49.567Z,66.30
2018-10-09T09:11:17.088Z,65.10
2018-10-09T09:16:12.147Z,64.50
2018-10-09T09:18:39.769Z,64.60
2018-10-09T09:21:07.521Z,65.20
2018-10-09T09:23:35.012Z,64.80
2018-10-09T09:26:03.645Z,64.10
2018-10-09T09:28:31.169Z,62.50
2018-10-09T09:30:58.702Z,59.70
2018-10-09T09:35:53.883Z,58.20
2018-10-09T09:38:21.373Z,58.40
2018-10-09T09:40:48.940Z,58.60
2018-10-09T09:45:44.191Z,57.00
2018-10-09T09:48:11.867Z,56.50
2018-10-09T09:55:34.360Z,54.00
2018-10-09T10:00:34.901Z,52.20
2018-10-09T10:03:02.622Z,52.10
2018-10-09T10:05:30.245Z,52.10
2018-10-09T10:07:57.887Z,52.00
2018-10-09T10:10:25.437Z,51.90
2018-10-09T10:12:52.912Z,48.70
2018-10-09T10:17:47.895Z,50.20
2018-10-09T10:20:15.437Z,49.50
2018-10-09T10:22:42.999Z,49.30
2018-10-09T10:25:10.542Z,48.90
2018-10-09T10:27:38.014Z,48.90
2018-10-09T10:30:05.803Z,49.20
2018-10-09T10:32:33.444Z,48.90
2018-10-09T10:35:00.998Z,49.30
2018-10-09T10:37:28.554Z,48.10
2018-10-09T10:39:56.093Z,48.20
2018-10-09T10:42:23.641Z,47.80
2018-10-09T10:47:18.588Z,46.40
2018-10-09T10:49:46.112Z,45.90
2018-10-09T10:52:13.694Z,45.50
2018-10-09T10:54:41.240Z,45.50
2018-10-09T10:57:08.853Z,44.20
2018-10-09T10:59:36.412Z,44.40
2018-10-09T11:02:03.896Z,44.90
2018-10-09T11:04:31.387Z,44.00
2018-10-09T11:06:58.953Z,44.80
2018-10-09T11:09:26.463Z,44.40
2018-10-09T11:11:54.084Z,44.90
2018-10-09T11:14:21.571Z,46.30
2018-10-09T11:16:49.136Z,47.70
2018-10-09T11:19:16.628Z,48.50
2018-10-09T11:21:44.133Z,48.50
2018-10-09T11:24:11.634Z,48.40
2018-10-09T11:26:39.181Z,48.40
2018-10-09T11:29:06.749Z,48.50
2018-10-09T11:31:34.305Z,49.30
2018-10-09T11:34:01.811Z,49.70
2018-10-09T11:36:29.344Z,49.30
2018-10-09T11:38:56.920Z,49.30
2018-10-09T11:41:24.540Z,50.30
2018-10-09T11:43:52.085Z,50.90
2018-10-09T11:46:19.668Z,51.00
2018-10-09T11:48:47.220Z,50.60
2018-10-09T11:51:14.725Z,51.50
2018-10-09T11:53:42.288Z,51.30
2018-10-09T11:56:09.866Z,51.30
2018-10-09T12:01:06.784Z,50.40
2018-10-09T12:03:34.364Z,50.40
2018-10-09T12:06:01.932Z,48.80
2018-10-09T12:08:29.497Z,49.00
2018-10-09T12:10:57.051Z,48.40
2018-10-09T12:13:24.671Z,46.70
2018-10-09T12:15:52.259Z,47.40
2018-10-09T12:18:19.747Z,45.60
2018-10-09T12:20:47.324Z,45.70
2018-10-09T12:23:14.883Z,45.00
2018-10-09T12:25:42.401Z,44.30
2018-10-09T12:28:09.900Z,44.80
2018-10-09T12:30:37.543Z,45.60
2018-10-09T12:33:05.669Z,45.50
2018-10-09T12:35:33.236Z,45.50
2018-10-09T12:38:00.801Z,44.70
2018-10-09T12:40:28.344Z,44.90
2018-10-09T12:42:55.905Z,45.60
2018-10-09T12:45:23.510Z,45.60
2018-10-09T12:47:51.135Z,45.40
2018-10-09T12:50:18.637Z,44.90
2018-10-09T12:52:46.289Z,45.00
2018-10-09T12:55:13.881Z,45.20
2018-10-09T12:57:41.557Z,45.50
2018-10-09T13:00:09.132Z,45.30
2018-10-09T13:02:36.769Z,44.90
2018-10-09T13:05:04.387Z,45.00
2018-10-09T13:07:31.985Z,45.50
2018-10-09T13:09:59.540Z,45.40
2018-10-09T13:12:27.060Z,46.50
2018-10-09T13:14:54.593Z,45.70
2018-10-09T13:17:22.215Z,46.40
2018-10-09T13:19:49.771Z,45.90
2018-10-09T13:24:44.831Z,45.70
2018-10-09T13:27:12.496Z,45.30
2018-10-09T13:29:40.124Z,45.70
2018-10-09T13:32:07.711Z,45.30
2018-10-09T13:34:35.425Z,45.90
2018-10-09T13:37:02.972Z,46.70
2018-10-09T13:39:30.647Z,45.90
2018-10-09T13:41:58.245Z,45.80
2018-10-09T13:44:25.783Z,45.80
2018-10-09T13:46:54.603Z,45.80
2018-10-09T13:49:22.482Z,45.70
2018-10-09T13:51:50.326Z,45.70
2018-10-09T13:54:17.771Z,45.30
2018-10-09T13:56:45.304Z,45.50
2018-10-09T13:59:12.973Z,45.30
2018-10-09T14:01:40.605Z,44.40
2018-10-09T14:04:08.439Z,44.10
2018-10-09T14:06:36.011Z,43.80
2018-10-09T14:09:05.825Z,42.80
2018-10-09T14:11:33.340Z,43.20
2018-10-09T14:14:00.966Z,43.20
2018-10-09T14:16:28.508Z,43.60
2018-10-09T14:18:56.078Z,43.70
2018-10-09T14:21:23.633Z,44.60
2018-10-09T14:23:51.204Z,45.40
2018-10-09T14:26:18.749Z,45.30
2018-10-09T14:28:46.309Z,45.10
2018-10-09T14:33:41.413Z,45.90
2018-10-09T14:36:09.113Z,46.30
2018-10-09T14:38:38.356Z,46.40
2018-10-09T14:41:05.993Z,46.90
2018-10-09T14:43:33.546Z,46.70
2018-10-09T14:46:01.149Z,47.10
2018-10-09T14:48:29.271Z,47.70
2018-10-09T14:50:57.042Z,47.60
2018-10-09T14:53:24.616Z,48.20
2018-10-09T14:55:52.187Z,48.30
2018-10-09T14:58:19.760Z,48.20
2018-10-09T15:00:47.360Z,48.80
2018-10-09T15:03:15.016Z,49.40
2018-10-09T15:05:42.562Z,49.80
2018-10-09T15:08:10.125Z,50.30
2018-10-09T15:15:38.027Z,51.50
2018-10-09T15:18:05.793Z,51.40
2018-10-09T15:20:33.352Z,51.20
2018-10-09T15:25:28.448Z,51.30
2018-10-09T15:27:56.012Z,51.90
2018-10-09T15:32:50.976Z,52.00
2018-10-09T15:35:18.608Z,52.60
2018-10-09T15:37:46.255Z,52.80
2018-10-09T15:40:13.849Z,52.90
2018-10-09T15:42:41.348Z,53.10
2018-10-09T15:45:08.969Z,53.80
2018-10-09T15:49:01.329Z,53.50
2018-10-09T15:51:29.229Z,53.50
2018-10-09T15:53:56.729Z,53.80
2018-10-09T15:56:24.309Z,54.60
2018-10-09T15:58:51.937Z,55.40
2018-10-09T16:01:19.498Z,54.50
2018-10-09T16:03:47.054Z,54.60
2018-10-09T16:06:14.618Z,54.80
2018-10-09T16:08:42.109Z,55.10
2018-10-09T16:11:09.727Z,54.80
2018-10-09T16:13:37.321Z,55.30
2018-10-09T16:16:05.051Z,55.30
2018-10-09T16:18:32.702Z,55.70
2018-10-09T16:23:27.985Z,56.20
2018-10-09T16:25:55.543Z,56.00
2018-10-09T16:28:23.132Z,56.70
2018-10-09T16:30:50.853Z,56.50
2018-10-09T16:33:18.443Z,57.20
2018-10-09T16:37:10.555Z,57.10
2018-10-09T16:39:38.166Z,58.00
2018-10-09T16:42:05.857Z,57.90
2018-10-09T16:44:33.430Z,58.80
2018-10-09T16:47:04.301Z,59.20
2018-10-09T16:49:32.245Z,59.20
2018-10-09T16:54:28.621Z,59.40
2018-10-09T16:56:56.180Z,59.60
2018-10-09T16:59:23.745Z,59.50
2018-10-09T17:01:51.256Z,59.50
2018-10-09T17:04:18.792Z,60.40
2018-10-09T17:06:46.378Z,60.50
2018-10-09T17:09:13.922Z,60.50
2018-10-09T17:11:41.921Z,60.50
2018-10-09T17:14:10.056Z,60.90
2018-10-09T17:16:38.477Z,61.00
2018-10-09T17:19:06.059Z,61.50
2018-10-09T17:21:33.630Z,61.30
2018-10-09T17:24:01.287Z,61.30
2018-10-09T17:28:56.477Z,63.00
2018-10-09T17:31:24.115Z,63.70
2018-10-09T17:33:51.781Z,64.00
2018-10-09T17:36:19.390Z,64.20
2018-10-09T17:38:46.993Z,63.80
2018-10-09T17:41:14.621Z,64.30
2018-10-09T17:46:09.730Z,65.00
2018-10-09T17:48:37.340Z,64.80
2018-10-09T17:53:32.677Z,64.80
2018-10-09T17:56:00.165Z,64.70
2018-10-09T17:58:27.747Z,64.70
2018-10-09T18:00:55.390Z,65.20
2018-10-09T18:03:23.006Z,66.50
2018-10-09T18:05:50.529Z,66.60
2018-10-09T18:08:18.432Z,65.60
2018-10-09T18:10:46.053Z,65.60
2018-10-09T18:13:13.623Z,66.10
2018-10-09T18:15:41.280Z,66.20
2018-10-09T18:20:36.425Z,66.10
2018-10-09T18:23:04.064Z,66.60
2018-10-09T18:25:31.694Z,66.50
2018-10-09T18:27:59.240Z,66.30
2018-10-09T18:30:26.842Z,66.60
2018-10-09T18:32:54.684Z,67.00
2018-10-09T18:35:22.111Z,67.10
2018-10-09T18:37:49.678Z,67.80
2018-10-09T18:40:17.349Z,67.30
2018-10-09T18:42:44.987Z,68.10
2018-10-09T18:45:15.895Z,68.00
2018-10-09T18:47:44.671Z,68.00
2018-10-09T18:50:12.674Z,68.00
2018-10-09T18:52:40.941Z,67.70
2018-10-09T18:55:10.563Z,68.00
2018-10-09T18:57:38.271Z,68.20
2018-10-09T19:00:06.856Z,68.60
2018-10-09T19:02:35.300Z,69.20
2018-10-09T19:05:03.049Z,69.00
2018-10-09T19:07:30.751Z,69.10
2018-10-09T19:09:58.474Z,69.10
2018-10-09T19:14:53.771Z,69.60
2018-10-09T19:17:21.602Z,70.10
2018-10-09T19:19:49.500Z,69.50
2018-10-09T19:22:17.888Z,70.00
2018-10-09T19:27:14.073Z,70.00
2018-10-09T19:32:16.589Z,70.30
2018-10-09T19:34:44.188Z,70.40
2018-10-09T19:37:13.031Z,70.70
2018-10-09T19:39:40.672Z,71.50
2018-10-09T19:42:08.427Z,71.60
2018-10-09T19:44:36.063Z,71.50
2018-10-09T19:47:03.751Z,71.30
2018-10-09T19:49:31.478Z,71.30
2018-10-09T19:51:59.062Z,71.50
2018-10-09T19:54:27.032Z,71.50
2018-10-09T19:56:54.669Z,71.50
2018-10-09T19:59:22.412Z,71.50
2018-10-09T20:01:50.067Z,71.50
2018-10-09T20:09:16.989Z,71.50
2018-10-09T20:11:45.495Z,72.10
2018-10-09T20:14:27.222Z,72.10
2018-10-09T20:16:54.788Z,72.50
2018-10-09T20:19:23.145Z,72.00
2018-10-09T20:21:50.771Z,72.30
2018-10-09T20:24:18.364Z,72.90
2018-10-09T20:26:47.059Z,73.40
2018-10-09T20:29:14.664Z,73.50
2018-10-09T20:31:42.284Z,73.10
2018-10-09T20:34:10.633Z,73.10
2018-10-09T20:36:38.499Z,73.10
2018-10-09T20:39:10.385Z,72.80
2018-10-09T20:41:38.370Z,72.60
2018-10-09T20:44:06.016Z,72.50
2018-10-09T20:46:34.754Z,72.80
2018-10-09T20:49:02.451Z,72.80
2018-10-09T20:51:30.916Z,72.80
2018-10-09T20:56:27.119Z,73.00
2018-10-09T20:58:54.777Z,73.50
2018-10-09T21:01:22.347Z,73.80
2018-10-09T21:05:15.203Z,74.10
2018-10-09T21:10:11.576Z,72.90
2018-10-09T21:12:39.294Z,72.90
2018-10-09T21:15:07.002Z,72.70
2018-10-09T21:17:34.706Z,72.70
2018-10-09T21:20:03.409Z,72.50
2018-10-09T21:22:31.101Z,72.30
2018-10-09T21:24:58.720Z,72.30
2018-10-09T21:27:26.324Z,72.50
2018-10-09T21:29:54.031Z,72.30
2018-10-09T21:32:21.684Z,72.40
2018-10-09T21:34:49.252Z,72.50
2018-10-09T21:37:16.820Z,72.60
2018-10-09T21:39:44.532Z,72.80
2018-10-09T21:42:12.114Z,73.10
2018-10-09T21:44:39.714Z,72.90
2018-10-09T21:47:07.367Z,73.00
2018-10-09T21:49:34.960Z,73.00
2018-10-09T21:54:30.477Z,73.00
2018-10-09T21:56:58.111Z,73.50
2018-10-09T21:59:25.690Z,73.60
2018-10-09T22:01:53.258Z,73.20
2018-10-09T22:04:20.853Z,73.20
2018-10-09T22:06:48.495Z,73.20
2018-10-09T22:09:16.065Z,73.50
2018-10-09T22:11:43.691Z,73.20
2018-10-09T22:21:14.591Z,73.00
2018-10-09T22:23:42.195Z,73.50
2018-10-09T22:26:09.830Z,73.80
2018-10-09T22:28:37.476Z,73.80
2018-10-09T22:31:05.058Z,73.70
2018-10-09T22:33:32.635Z,73.60
2018-10-09T22:36:00.268Z,73.30
2018-10-09T22:38:27.859Z,73.50
2018-10-09T22:40:55.387Z,72.80
2018-10-09T22:43:23.048Z,72.40
2018-10-09T22:45:50.702Z,72.30
2018-10-09T22:48:18.329Z,72.90
2018-10-09T22:50:45.921Z,72.70
2018-10-09T22:53:13.536Z,73.70
2018-10-09T22:55:41.265Z,74.20
2018-10-09T22:58:08.957Z,73.90
2018-10-09T23:00:36.590Z,73.70
2018-10-09T23:03:04.436Z,74.10
2018-10-09T23:05:32.023Z,74.10
2018-10-09T23:07:59.588Z,73.80
2018-10-09T23:10:27.173Z,73.50
2018-10-09T23:12:54.769Z,73.50
2018-10-09T23:15:22.400Z,73.90
2018-10-09T23:25:47.721Z,72.30
2018-10-09T23:29:41.581Z,72.40
2018-10-09T23:32:09.145Z,72.50
2018-10-09T23:34:36.822Z,72.90
2018-10-09T23:37:04.412Z,72.60
2018-10-09T23:39:32.106Z,72.50
2018-10-09T23:41:59.693Z,72.60
2018-10-09T23:44:27.279Z,72.90
2018-10-09T23:46:54.870Z,73.10
2018-10-09T23:49:22.520Z,73.20
2018-10-09T23:51:50.088Z,72.90
2018-10-09T23:54:17.687Z,72.90
2018-10-09T23:56:45.275Z,72.90
2018-10-09T23:59:12.852Z,72.50
